Time;durP1;ratioP1;P1;durP2;ratioP2;P2;SDS_P1;SDS_P2;PMS_P1;PMS_P2;Temp;Humidity;BMP_temperature;BMP_pressure;BME280_temperature;BME280_humidity;BME280_pressure;Samples;Min_cycle;Max_cycle;Signal;HPM_P1;HPM_P2
2023/04/21 05:34:56;;;;;;;20.23;12.27;;;4.30;99.90;;;;;;5111587;27;20602;-78
2023/04/21 05:40:51;;;;;;;25.30;14.63;;;4.60;99.90;;;;;;5131050;27;20613;-76
2023/04/21 05:46:09;;;;;;;31.27;16.33;;;4.80;99.90;;;;;;5131547;27;20295;-77
2023/04/21 05:49:52;;;;;;;25.83;14.20;;;5.00;99.90;;;;;;5131693;27;20300;-78
2023/04/21 05:54:23;;;;;;;25.40;14.70;;;5.00;99.90;;;;;;5132011;27;20792;-77
2023/04/21 05:57:37;;;;;;;16.13;11.70;;;5.30;99.90;;;;;;5132470;27;20733;-77
2023/04/21 06:02:21;;;;;;;16.57;10.17;;;5.30;99.90;;;;;;5133439;27;20755;-78
2023/04/21 06:05:29;;;;;;;13.23;10.03;;;5.30;99.90;;;;;;5152599;27;20288;-77
2023/04/21 06:09:00;;;;;;;11.63;9.97;;;5.20;99.90;;;;;;5134386;27;20268;-78
2023/04/21 06:12:16;;;;;;;11.97;9.40;;;5.50;99.90;;;;;;5133220;27;20272;-78
2023/04/21 06:16:00;;;;;;;12.20;9.07;;;;;;;;;;5112526;27;20603;-78
2023/04/21 06:19:17;;;;;;;11.40;9.00;;;5.60;99.90;;;;;;5133128;27;20274;-78
2023/04/21 06:22:57;;;;;;;11.50;8.90;;;5.70;99.90;;;;;;5133518;27;20599;-78
2023/04/21 06:26:55;;;;;;;10.37;8.20;;;6.10;99.90;;;;;;5134437;27;20612;-79
2023/04/21 06:31:59;;;;;;;17.60;8.40;;;6.10;99.90;;;;;;5133665;27;20269;-78
2023/04/21 06:35:56;;;;;;;10.37;7.77;;;6.30;99.90;;;;;;5133492;27;20294;-78
2023/04/21 06:38:22;;;;;;;11.93;8.90;;;6.40;99.90;;;;;;5132940;27;20179;-78
2023/04/21 06:42:54;;;;;;;6.37;5.67;;;6.70;99.90;;;;;;5133427;27;20626;-78
2023/04/21 06:45:20;;;;;;;7.73;6.90;;;;;;;;;;5121927;28;20288;-78
2023/04/21 06:47:46;;;;;;;7.00;6.30;;;;;;;;;;5132622;28;20258;-78
2023/04/21 06:50:12;;;;;;;6.27;5.67;;;;;;;;;;5132451;28;20210;-78
2023/04/21 06:52:38;;;;;;;6.67;5.10;;;;;;;;;;5131293;28;20287;-78
2023/04/21 06:55:04;;;;;;;7.20;5.00;;;7.10;99.90;;;;;;5132339;28;20717;-78
2023/04/21 06:57:30;;;;;;;5.40;4.90;;;;;;;;;;5132780;27;20183;-78
2023/04/21 06:59:56;;;;;;;6.90;4.80;;;7.20;99.90;;;;;;5130880;28;20263;-78
2023/04/21 07:02:22;;;;;;;5.70;4.57;;;;;;;;;;5132316;27;20683;-78
2023/04/21 07:04:48;;;;;;;5.90;4.83;;;7.60;99.90;;;;;;5132066;28;20188;-78
2023/04/21 07:07:14;;;;;;;6.07;5.33;;;;;;;;;;5132551;27;20528;-78
2023/04/21 07:09:39;;;;;;;7.17;4.70;;;7.60;99.90;;;;;;5130802;28;20173;-78
2023/04/21 07:12:05;;;;;;;6.10;5.33;;;;;;;;;;5132250;27;20578;-78
2023/04/21 07:14:31;;;;;;;6.27;5.20;;;;;;;;;;5132584;28;20192;-78
2023/04/21 07:16:58;;;;;;;7.27;5.23;;;;;;;;;;5132564;28;20183;-78
2023/04/21 07:19:23;;;;;;;6.77;5.97;;;7.70;99.90;;;;;;5130930;28;20546;-78
2023/04/21 07:21:49;;;;;;;6.33;5.07;;;;;;;;;;5131078;28;20283;-78
2023/04/21 07:24:15;;;;;;;6.73;5.47;;;8.00;99.90;;;;;;5130578;28;20292;-78
2023/04/21 07:26:41;;;;;;;4.80;4.17;;;;;;;;;;5132768;27;20519;-78
2023/04/21 07:29:07;;;;;;;5.10;4.43;;;8.60;99.90;;;;;;5130984;28;20175;-78
2023/04/21 07:31:32;;;;;;;5.43;4.90;;;8.90;99.90;;;;;;5132053;27;20704;-78
2023/04/21 07:33:58;;;;;;;6.00;4.60;;;9.30;99.90;;;;;;5131001;28;20665;-78
2023/04/21 07:36:25;;;;;;;4.20;3.80;;;9.40;99.90;;;;;;5132158;27;20554;-78
2023/04/21 07:38:51;;;;;;;5.10;4.40;;;;;;;;;;5131415;28;20239;-78
2023/04/21 07:41:16;;;;;;;5.23;4.00;;;10.20;99.90;;;;;;5130930;28;20676;-78
2023/04/21 07:43:42;;;;;;;8.40;4.13;;;10.30;99.90;;;;;;5133036;27;20175;-79
2023/04/21 07:46:08;;;;;;;4.70;4.07;;;10.80;99.90;;;;;;5132704;27;20551;-78
2023/04/21 07:48:33;;;;;;;5.23;4.30;;;11.60;99.90;;;;;;5131967;28;20660;-78
2023/04/21 07:50:59;;;;;;;5.63;4.30;;;12.40;99.90;;;;;;5131707;28;20185;-78
2023/04/21 07:53:26;;;;;;;5.10;3.70;;;12.80;99.90;;;;;;5123352;28;20212;-79
2023/04/21 07:55:52;;;;;;;4.07;3.67;;;13.00;99.90;;;;;;5119698;28;20230;-79
2023/04/21 07:58:18;;;;;;;3.80;3.40;;;13.50;99.90;;;;;;5119929;28;20176;-78
2023/04/21 08:00:44;;;;;;;3.40;3.10;;;14.40;99.90;;;;;;5119609;28;20249;-78
2023/04/21 08:03:10;;;;;;;3.53;3.23;;;15.40;99.90;;;;;;5119346;28;20633;-79
2023/04/21 08:05:36;;;;;;;3.27;2.97;;;16.10;99.90;;;;;;5118335;28;20200;-79
2023/04/21 08:08:02;;;;;;;3.97;3.20;;;16.80;99.90;;;;;;5118051;28;20640;-79
2023/04/21 08:10:28;;;;;;;3.43;2.90;;;17.10;99.90;;;;;;5119355;27;20172;-79
2023/04/21 08:12:53;;;;;;;3.10;2.80;;;16.90;99.90;;;;;;5118927;28;20310;-79
2023/04/21 08:15:19;;;;;;;3.33;3.03;;;16.80;99.90;;;;;;5119453;28;20232;-79
2023/04/21 08:17:45;;;;;;;2.27;2.07;;;16.90;99.90;;;;;;5119209;28;20174;-79
2023/04/21 08:20:11;;;;;;;2.50;2.30;;;17.50;99.90;;;;;;5119017;28;20193;-79
2023/04/21 08:22:37;;;;;;;2.50;2.30;;;17.90;99.90;;;;;;5117771;28;20206;-80
2023/04/21 08:25:04;;;;;;;3.00;2.63;;;18.00;99.90;;;;;;5121928;28;20199;-81
2023/04/21 08:27:30;;;;;;;2.33;2.13;;;17.30;99.90;;;;;;5121929;28;20239;-80
2023/04/21 08:29:55;;;;;;;2.10;1.90;;;16.90;99.90;;;;;;5122282;28;20171;-80
2023/04/21 08:32:23;;;;;;;2.93;2.60;;;16.80;99.90;;;;;;5120738;28;20232;-81
2023/04/21 08:34:53;;;;;;;2.20;2.00;;;16.50;99.90;;;;;;5120837;28;20204;-81
2023/04/21 08:37:20;;;;;;;2.27;1.67;;;16.20;99.90;;;;;;5121666;27;20172;-81
2023/04/21 08:39:46;;;;;;;2.40;1.80;;;15.20;99.90;;;;;;5123514;28;20183;-80
2023/04/21 08:42:13;;;;;;;1.70;1.60;;;14.20;99.90;;;;;;5123960;28;20210;-80
2023/04/21 08:44:40;;;;;;;3.90;2.47;;;13.30;99.90;;;;;;5123056;28;20559;-79
2023/04/21 08:47:10;;;;;;;2.43;2.20;;;12.90;99.90;;;;;;5122261;28;20207;-80
2023/04/21 08:49:37;;;;;;;3.80;2.20;;;13.40;99.90;;;;;;5122353;28;20219;-80
2023/04/21 08:52:03;;;;;;;3.53;2.00;;;14.40;99.90;;;;;;5122368;28;20206;-80
2023/04/21 08:54:29;;;;;;;2.90;2.00;;;15.40;99.90;;;;;;5122063;28;20217;-80
2023/04/21 08:56:56;;;;;;;4.23;2.37;;;16.00;99.90;;;;;;5123088;28;20185;-80
2023/04/21 08:59:21;;;;;;;2.67;2.40;;;15.90;99.90;;;;;;5121217;28;20213;-80
2023/04/21 09:02:16;;;;;;;2.80;2.60;;;15.70;99.90;;;;;;5121116;28;20272;-80
2023/04/21 09:04:47;;;;;;;3.33;3.03;;;15.20;99.90;;;;;;5120196;28;20690;-80
2023/04/21 09:07:42;;;;;;;4.13;3.73;;;15.40;99.90;;;;;;5120312;28;20169;-81
2023/04/21 09:10:08;;;;;;;4.80;3.63;;;16.00;99.90;;;;;;5113127;28;20195;-81
2023/04/21 09:12:34;;;;;;;4.07;3.67;;;15.90;99.90;;;;;;5122257;28;20537;-80
2023/04/21 09:15:04;;;;;;;3.90;3.57;;;15.70;99.90;;;;;;5122261;28;20667;-80
2023/04/21 09:17:35;;;;;;;3.73;3.37;;;16.00;99.90;;;;;;5120932;28;20172;-81
2023/04/21 09:20:19;;;;;;;3.57;3.27;;;16.60;99.90;;;;;;5121025;28;20174;-80
2023/04/21 09:22:48;;;;;;;3.27;2.80;;;16.80;99.90;;;;;;5120205;28;20206;-79
2023/04/21 09:25:21;;;;;;;4.27;3.20;;;16.80;99.90;;;;;;5118464;28;20195;-80
2023/04/21 09:27:47;;;;;;;3.20;2.90;;;16.60;99.90;;;;;;5118885;28;20175;-80
2023/04/21 09:30:17;;;;;;;3.40;3.10;;;16.80;99.90;;;;;;5119850;28;20231;-81
2023/04/21 09:32:42;;;;;;;4.63;3.73;;;16.30;99.90;;;;;;5121585;28;20681;-80
2023/04/21 09:35:11;;;;;;;4.57;3.20;;;15.90;99.90;;;;;;5119994;28;20231;-80
2023/04/21 09:37:42;;;;;;;3.57;3.27;;;15.90;99.90;;;;;;5118779;28;20213;-80
2023/04/21 09:40:12;;;;;;;3.50;3.20;;;16.30;99.90;;;;;;5119182;28;20180;-80
2023/04/21 09:42:38;;;;;;;3.07;2.83;;;16.60;99.90;;;;;;5118786;28;20207;-81
2023/04/21 09:45:05;;;;;;;3.47;3.17;;;17.00;99.90;;;;;;5117555;28;20718;-81
2023/04/21 09:47:39;;;;;;;3.37;3.07;;;17.30;99.90;;;;;;5117534;28;20271;-81
2023/04/21 09:50:06;;;;;;;3.63;3.33;;;17.40;99.90;;;;;;5119251;28;20157;-81
2023/04/21 09:52:33;;;;;;;3.57;3.27;;;17.50;99.90;;;;;;5119367;28;20196;-82
2023/04/21 09:55:05;;;;;;;3.17;2.87;;;17.50;99.90;;;;;;5118698;28;20233;-81
2023/04/21 09:57:32;;;;;;;2.80;2.60;;;17.80;99.90;;;;;;5119187;28;20198;-80
2023/04/21 10:00:08;;;;;;;3.50;2.47;;;17.70;99.90;;;;;;5119034;28;20228;-78
2023/04/21 10:02:35;;;;;;;2.90;2.70;;;17.70;99.90;;;;;;5118087;28;20227;-80
2023/04/21 10:05:03;;;;;;;3.23;3.00;;;17.40;99.90;;;;;;5118158;28;20212;-80
2023/04/21 10:07:29;;;;;;;3.53;2.60;;;17.50;99.90;;;;;;5117080;28;20172;-79
2023/04/21 10:09:56;;;;;;;2.70;2.50;;;17.40;99.90;;;;;;5116624;28;20311;-78
2023/04/21 10:12:24;;;;;;;4.27;2.70;;;17.00;99.90;;;;;;5122033;27;20204;-79
2023/04/21 10:14:52;;;;;;;2.60;2.40;;;16.90;99.90;;;;;;5123516;28;20194;-78
2023/04/21 10:17:20;;;;;;;2.57;2.37;;;17.10;99.90;;;;;;5118436;28;20544;-78
2023/04/21 10:20:06;;;;;;;2.87;2.67;;;17.50;99.90;;;;;;5118962;28;20178;-78
2023/04/21 10:22:33;;;;;;;2.87;2.47;;;17.20;99.90;;;;;;5117780;28;20646;-78
2023/04/21 10:25:07;;;;;;;3.47;2.60;;;17.70;99.90;;;;;;5116838;28;20194;-77
2023/04/21 10:27:40;;;;;;;2.43;2.10;;;17.80;99.90;;;;;;5116888;28;20153;-78
2023/04/21 10:30:25;;;;;;;3.10;2.23;;;18.10;99.90;;;;;;5115697;28;20173;-78
2023/04/21 10:33:04;;;;;;;2.67;2.17;;;18.60;99.90;;;;;;5117454;28;20221;-78
2023/04/21 10:36:01;;;;;;;2.20;2.00;;;19.10;99.90;;;;;;5116915;28;20195;-78
2023/04/21 10:38:34;;;;;;;2.20;2.00;;;18.90;99.90;;;;;;5116353;28;20272;-78
2023/04/21 10:41:48;;;;;;;2.27;1.90;;;19.10;99.90;;;;;;5115366;28;20301;-78
2023/04/21 10:44:15;;;;;;;1.97;1.77;;;18.80;99.90;;;;;;5107101;28;20644;-78
2023/04/21 10:46:49;;;;;;;1.80;1.70;;;18.30;99.90;;;;;;5116530;28;20170;-78
2023/04/21 10:49:22;;;;;;;1.40;1.30;;;18.40;99.90;;;;;;5114747;28;20590;-78
2023/04/21 10:51:57;;;;;;;1.53;1.40;;;18.60;99.90;;;;;;5115688;28;20207;-78
2023/04/21 10:54:26;;;;;;;1.50;1.40;;;18.60;99.90;;;;;;5117180;28;20241;-78
2023/04/21 10:56:57;;;;;;;1.40;1.30;;;18.50;99.90;;;;;;5116553;28;20176;-78
2023/04/21 10:59:25;;;;;;;1.77;1.67;;;18.70;99.90;;;;;;5115348;28;20571;-76
2023/04/21 11:01:50;;;;;;;1.87;1.77;;;19.20;99.90;;;;;;5113492;28;20203;-76
2023/04/21 11:04:19;;;;;;;2.17;1.70;;;19.20;99.90;;;;;;5113711;28;20718;-77
2023/04/21 11:07:07;;;;;;;2.07;1.87;;;18.90;99.90;;;;;;5113780;28;20221;-76
2023/04/21 11:09:34;;;;;;;2.13;1.93;;;19.20;99.90;;;;;;5113928;28;20156;-77
2023/04/21 11:12:03;;;;;;;2.50;2.30;;;19.20;99.90;;;;;;5114026;28;20229;-77
2023/04/21 11:14:29;;;;;;;2.63;2.10;;;19.30;99.90;;;;;;5113794;28;20223;-78
2023/04/21 11:16:55;;;;;;;2.33;2.13;;;19.30;99.90;;;;;;5113708;28;20553;-77
2023/04/21 11:19:23;;;;;;;3.00;2.70;;;19.60;99.90;;;;;;5113730;28;20643;-78
2023/04/21 11:21:49;;;;;;;2.70;2.50;;;19.80;99.90;;;;;;5113363;28;20285;-77
2023/04/21 11:24:15;;;;;;;3.03;2.70;;;19.70;99.90;;;;;;5113613;28;20176;-78
2023/04/21 11:26:43;;;;;;;2.97;2.70;;;19.10;99.90;;;;;;5114187;28;20176;-77
2023/04/21 11:29:10;;;;;;;3.70;2.50;;;19.60;99.90;;;;;;5116247;28;20199;-77
2023/04/21 11:31:38;;;;;;;2.70;2.50;;;20.30;99.90;;;;;;5117226;28;20171;-77
2023/04/21 11:34:05;;;;;;;3.23;2.27;;;20.70;99.90;;;;;;5117353;28;20202;-77
2023/04/21 11:36:43;;;;;;;4.30;2.57;;;21.20;99.90;;;;;;5117691;28;20179;-78
2023/04/21 11:39:10;;;;;;;5.00;2.50;;;21.70;99.90;;;;;;5117271;28;20170;-77
2023/04/21 11:41:41;;;;;;;2.80;2.50;;;21.50;99.90;;;;;;5115535;28;20213;-77
2023/04/21 11:44:07;;;;;;;2.33;2.13;;;20.80;99.90;;;;;;5117105;28;20171;-77
2023/04/21 11:46:35;;;;;;;4.53;2.33;;;20.90;99.90;;;;;;5117171;28;20249;-77
2023/04/21 11:49:03;;;;;;;2.70;2.03;;;21.40;99.90;;;;;;5117193;28;20598;-77
2023/04/21 11:51:39;;;;;;;3.10;2.10;;;21.90;99.90;;;;;;5116633;28;20172;-77
2023/04/21 11:54:08;;;;;;;2.17;2.00;;;22.20;97.70;;;;;;5117025;28;20172;-77
2023/04/21 11:56:41;;;;;;;4.87;2.03;;;22.30;96.90;;;;;;5116733;28;20199;-77
2023/04/21 11:59:13;;;;;;;2.93;2.10;;;22.40;97.60;;;;;;5118839;28;20163;-80
2023/04/21 12:01:45;;;;;;;2.60;2.40;;;22.70;98.40;;;;;;5121269;28;20284;-81
2023/04/21 12:04:19;;;;;;;3.17;2.27;;;22.80;95.10;;;;;;5119337;28;20574;-80
2023/04/21 12:06:54;;;;;;;2.20;2.00;;;22.90;97.00;;;;;;5119805;27;20200;-79
2023/04/21 12:09:20;;;;;;;2.20;2.00;;;23.40;96.40;;;;;;5119948;28;20240;-79
2023/04/21 12:11:50;;;;;;;2.20;2.00;;;23.60;95.50;;;;;;5119785;28;20279;-79
2023/04/21 12:14:18;;;;;;;2.10;1.90;;;23.50;93.50;;;;;;5120987;28;20173;-80
2023/04/21 12:16:49;;;;;;;2.10;1.90;;;23.70;92.80;;;;;;5121309;28;20202;-79
2023/04/21 12:19:22;;;;;;;2.10;2.00;;;23.90;89.40;;;;;;5118899;28;20176;-79
2023/04/21 12:21:53;;;;;;;2.40;2.20;;;23.70;90.80;;;;;;5120492;28;20549;-79
2023/04/21 12:24:19;;;;;;;3.43;2.00;;;23.30;90.40;;;;;;5119768;28;20156;-78
2023/04/21 12:26:45;;;;;;;4.30;2.17;;;23.20;90.60;;;;;;5119779;28;20173;-80
2023/04/21 12:29:10;;;;;;;2.10;1.73;;;23.60;93.40;;;;;;5119403;28;20594;-80
2023/04/21 12:31:36;;;;;;;2.17;2.00;;;23.90;90.50;;;;;;5120780;28;20232;-81
2023/04/21 12:34:01;;;;;;;1.90;1.80;;;23.80;89.30;;;;;;5119347;28;20173;-79
2023/04/21 12:36:27;;;;;;;2.37;1.70;;;24.10;91.40;;;;;;5123368;28;20190;-80
2023/04/21 12:38:53;;;;;;;3.93;2.10;;;24.30;87.90;;;;;;5123908;28;20165;-80
2023/04/21 12:41:18;;;;;;;4.50;1.70;;;24.20;86.00;;;;;;5123021;28;20298;-80
2023/04/21 12:43:44;;;;;;;1.80;1.70;;;24.20;88.90;;;;;;5122919;28;20241;-81
2023/04/21 12:46:10;;;;;;;2.23;1.70;;;24.60;89.40;;;;;;5120981;28;20196;-81
2023/04/21 12:48:36;;;;;;;1.83;1.70;;;24.70;84.30;;;;;;5123066;28;20169;-81
2023/04/21 12:51:01;;;;;;;1.50;1.40;;;24.80;88.10;;;;;;5120625;28;20183;-80
2023/04/21 12:53:27;;;;;;;1.90;1.80;;;24.70;83.20;;;;;;5116815;28;20183;-81
2023/04/21 12:55:53;;;;;;;1.60;1.50;;;24.40;81.30;;;;;;5119539;27;20191;-81
2023/04/21 12:58:18;;;;;;;5.67;1.90;;;24.50;83.20;;;;;;5119972;28;20176;-81
2023/04/21 13:00:44;;;;;;;1.50;1.40;;;25.00;85.30;;;;;;5121375;28;20178;-82
2023/04/21 13:03:10;;;;;;;3.50;1.87;;;24.90;82.40;;;;;;5121651;28;20171;-81
2023/04/21 13:05:36;;;;;;;2.63;2.00;;;24.90;79.30;;;;;;5120384;28;20192;-80
2023/04/21 13:08:01;;;;;;;1.70;1.60;;;25.20;79.60;;;;;;5119155;28;20171;-82
2023/04/21 13:10:27;;;;;;;1.90;1.50;;;25.00;82.80;;;;;;5121562;28;20218;-81
2023/04/21 13:12:53;;;;;;;1.87;1.43;;;24.60;79.00;;;;;;5122156;28;20656;-81
2023/04/21 13:15:19;;;;;;;1.77;1.50;;;24.50;78.90;;;;;;5121313;28;20196;-81
2023/04/21 13:17:45;;;;;;;1.73;1.40;;;24.60;79.30;;;;;;5120049;28;20172;-81
2023/04/21 13:20:11;;;;;;;1.57;1.47;;;24.50;82.00;;;;;;5119450;28;20671;-81
2023/04/21 13:22:36;;;;;;;1.17;1.07;;;25.00;77.50;;;;;;5119957;28;20556;-78
2023/04/21 13:25:03;;;;;;;1.57;1.17;;;25.00;77.00;;;;;;5122115;28;20321;-80
2023/04/21 13:27:29;;;;;;;2.00;1.10;;;24.90;75.40;;;;;;5120906;28;20247;-80
2023/04/21 13:29:56;;;;;;;1.57;1.20;;;24.80;75.50;;;;;;5120148;28;20163;-80
2023/04/21 13:32:22;;;;;;;1.70;1.10;;;25.20;80.30;;;;;;5120013;28;20171;-81
2023/04/21 13:34:47;;;;;;;1.20;1.10;;;25.70;76.30;;;;;;5119470;28;20202;-81
2023/04/21 13:37:15;;;;;;;1.27;1.00;;;25.70;72.60;;;;;;5118539;28;20176;-79
2023/04/21 13:39:41;;;;;;;2.47;1.03;;;25.70;70.60;;;;;;5118278;28;20164;-81
2023/04/21 13:42:06;;;;;;;1.23;1.07;;;25.30;73.80;;;;;;5118675;28;20215;-81
2023/04/21 13:44:32;;;;;;;1.10;1.00;;;24.70;72.10;;;;;;5119071;28;20206;-80
2023/04/21 13:46:58;;;;;;;1.20;1.10;;;24.70;75.50;;;;;;5119239;28;20168;-81
2023/04/21 13:49:24;;;;;;;1.03;0.93;;;24.80;77.40;;;;;;5117801;28;20281;-82
2023/04/21 13:51:50;;;;;;;1.30;1.20;;;24.90;75.60;;;;;;5118757;28;20202;-81
2023/04/21 13:54:16;;;;;;;1.00;0.90;;;25.10;72.10;;;;;;5118098;28;20168;-81
2023/04/21 13:56:41;;;;;;;1.00;0.90;;;24.70;71.30;;;;;;5119893;28;20186;-81
2023/04/21 13:59:09;;;;;;;1.37;0.90;;;24.60;73.20;;;;;;5118082;28;20189;-82
2023/04/21 14:01:35;;;;;;;1.30;1.00;;;24.90;73.10;;;;;;5117853;28;20411;-81
2023/04/21 14:04:01;;;;;;;1.47;0.83;;;25.20;72.50;;;;;;5121376;28;20179;-80
2023/04/21 14:06:27;;;;;;;1.23;1.00;;;24.90;71.10;;;;;;5125684;28;20190;-81
2023/04/21 14:08:53;;;;;;;1.10;1.00;;;25.10;69.70;;;;;;5115759;28;20179;-80
2023/04/21 14:11:19;;;;;;;0.80;0.80;;;24.90;70.50;;;;;;5115148;28;20183;-80
2023/04/21 14:13:45;;;;;;;1.23;1.00;;;25.20;69.70;;;;;;5117625;28;20273;-81
2023/04/21 14:16:11;;;;;;;2.20;0.87;;;24.80;69.90;;;;;;5117227;28;20225;-81
2023/04/21 14:18:39;;;;;;;1.30;1.20;;;24.40;69.80;;;;;;5117667;28;20639;-80
2023/04/21 14:21:05;;;;;;;1.60;1.10;;;24.40;68.70;;;;;;5117023;28;20251;-80
2023/04/21 14:23:30;;;;;;;1.83;0.97;;;24.80;68.10;;;;;;5115636;28;20263;-80
2023/04/21 14:25:56;;;;;;;1.90;1.10;;;25.10;67.30;;;;;;5117754;28;20266;-81
2023/04/21 14:28:22;;;;;;;0.90;0.80;;;25.00;67.90;;;;;;5118584;28;20168;-80
2023/04/21 14:30:47;;;;;;;1.80;0.80;;;24.90;66.00;;;;;;5119564;28;20247;-81
2023/04/21 14:33:13;;;;;;;1.10;0.80;;;25.00;68.00;;;;;;5118177;28;20190;-81
2023/04/21 14:35:39;;;;;;;1.10;1.00;;;24.80;65.80;;;;;;5118389;28;20188;-81
2023/04/21 14:38:05;;;;;;;1.20;1.10;;;24.60;66.30;;;;;;5116949;28;20224;-81
2023/04/21 14:40:31;;;;;;;0.80;0.80;;;24.30;66.00;;;;;;5117469;28;20171;-80
2023/04/21 14:42:56;;;;;;;1.10;1.00;;;24.30;67.10;;;;;;5116496;28;20286;-81
2023/04/21 14:45:22;;;;;;;1.07;0.90;;;23.90;65.50;;;;;;5116006;28;20322;-82
2023/04/21 14:47:48;;;;;;;1.17;1.00;;;23.60;66.90;;;;;;5115907;28;20167;-81
2023/04/21 14:50:13;;;;;;;2.20;0.80;;;23.40;70.10;;;;;;5116803;28;20178;-81
2023/04/21 14:52:39;;;;;;;1.00;0.87;;;23.30;66.50;;;;;;5117578;28;20316;-81
2023/04/21 14:55:05;;;;;;;1.10;0.80;;;23.40;65.30;;;;;;5118481;28;20356;-81
2023/04/21 14:57:31;;;;;;;1.67;0.70;;;23.80;65.40;;;;;;5118109;28;20641;-80
2023/04/21 14:59:56;;;;;;;0.97;0.87;;;23.90;65.60;;;;;;5116041;28;20266;-81
2023/04/21 15:02:22;;;;;;;1.37;1.10;;;24.10;65.60;;;;;;5116808;28;20247;-81
2023/04/21 15:04:48;;;;;;;1.30;0.97;;;24.10;65.30;;;;;;5124221;28;20182;-81
2023/04/21 15:07:14;;;;;;;2.00;1.17;;;24.10;65.30;;;;;;5123261;28;20173;-81
2023/04/21 15:09:44;;;;;;;0.80;0.80;;;23.40;65.00;;;;;;5121395;28;20179;-77
2023/04/21 15:12:13;;;;;;;2.53;1.03;;;22.20;67.10;;;;;;5118551;28;20512;-77
2023/04/21 15:14:39;;;;;;;3.47;1.23;;;20.60;69.70;;;;;;5122259;28;20197;-82
2023/04/21 15:17:05;;;;;;;1.20;1.10;;;19.50;74.00;;;;;;5122256;28;20198;-78
2023/04/21 15:19:31;;;;;;;1.10;1.00;;;18.80;75.80;;;;;;5120623;28;20187;-79
2023/04/21 15:21:57;;;;;;;1.90;1.20;;;18.80;76.20;;;;;;5122088;28;20203;-81
2023/04/21 15:24:23;;;;;;;1.30;1.20;;;18.40;77.20;;;;;;5123896;28;20189;-81
2023/04/21 15:26:49;;;;;;;1.00;1.00;;;18.20;80.20;;;;;;5123474;28;20206;-81
2023/04/21 15:29:14;;;;;;;1.27;1.17;;;18.00;81.60;;;;;;5121875;28;20224;-80
2023/04/21 15:31:40;;;;;;;1.60;1.40;;;18.00;81.20;;;;;;5124476;28;20201;-80
2023/04/21 15:34:06;;;;;;;2.50;1.20;;;17.80;81.70;;;;;;5120885;28;20175;-81
2023/04/21 15:36:31;;;;;;;2.50;1.50;;;17.70;81.30;;;;;;5119732;28;20270;-80
2023/04/21 15:38:57;;;;;;;1.50;1.20;;;17.40;81.00;;;;;;5122275;28;20164;-79
2023/04/21 15:41:24;;;;;;;3.50;1.57;;;17.30;82.00;;;;;;5121371;28;20210;-79
2023/04/21 15:43:50;;;;;;;5.60;1.63;;;17.10;82.90;;;;;;5120680;28;20259;-79
2023/04/21 15:46:16;;;;;;;2.10;1.53;;;17.00;83.10;;;;;;5122836;28;20282;-81
2023/04/21 15:48:42;;;;;;;2.83;1.23;;;17.00;83.70;;;;;;5120825;28;20208;-80
2023/04/21 15:51:09;;;;;;;1.63;1.13;;;16.90;84.70;;;;;;5119810;28;20183;-80
2023/04/21 15:53:36;;;;;;;2.87;1.70;;;16.80;87.00;;;;;;5119752;28;20179;-79
2023/04/21 15:56:03;;;;;;;4.93;1.23;;;16.80;87.40;;;;;;5120824;28;20278;-79
2023/04/21 15:58:29;;;;;;;4.13;1.50;;;16.70;87.10;;;;;;5118690;28;20179;-79
2023/04/21 16:00:55;;;;;;;2.90;1.37;;;16.60;88.40;;;;;;5119773;28;20173;-81
2023/04/21 16:03:21;;;;;;;3.30;1.20;;;16.60;88.20;;;;;;5121159;28;20179;-81
2023/04/21 16:05:47;;;;;;;3.40;1.33;;;16.60;88.70;;;;;;5121261;28;20531;-80
2023/04/21 16:08:13;;;;;;;2.80;1.30;;;16.50;89.80;;;;;;5122824;28;20206;-80
